createdAt,value
2018-10-19T00:00:37.060Z,2.17
2018-10-19T00:03:06.056Z,2.40
2018-10-19T00:05:34.890Z,2.80
2018-10-19T00:08:03.726Z,2.80
2018-10-19T00:10:32.569Z,2.97
2018-10-19T00:13:01.391Z,2.53
2018-10-19T00:15:30.249Z,2.63
2018-10-19T00:17:59.427Z,2.60
2018-10-19T00:20:28.261Z,2.37
2018-10-19T00:22:57.123Z,2.67
2018-10-19T00:25:25.928Z,3.30
2018-10-19T00:27:54.791Z,2.37
2018-10-19T00:30:23.639Z,2.90
2018-10-19T00:32:52.473Z,2.87
2018-10-19T00:35:21.289Z,2.50
2018-10-19T00:37:50.111Z,2.07
2018-10-19T00:40:18.958Z,3.23
2018-10-19T00:42:47.798Z,2.50
2018-10-19T00:45:17.531Z,2.33
2018-10-19T00:47:46.374Z,2.40
2018-10-19T00:50:15.186Z,2.43
2018-10-19T00:52:44.039Z,2.70
2018-10-19T00:55:12.862Z,2.60
2018-10-19T00:57:41.689Z,2.53
2018-10-19T01:00:10.574Z,2.50
2018-10-19T01:02:39.385Z,2.50
2018-10-19T01:05:08.283Z,2.73
2018-10-19T01:07:37.046Z,3.73
2018-10-19T01:10:05.968Z,3.20
2018-10-19T01:12:34.914Z,3.37
2018-10-19T01:15:03.807Z,2.77
2018-10-19T01:17:32.575Z,2.83
2018-10-19T01:20:01.402Z,2.93
2018-10-19T01:22:30.251Z,2.80
2018-10-19T01:24:59.242Z,2.37
2018-10-19T01:27:28.099Z,3.00
2018-10-19T01:29:56.946Z,2.50
2018-10-19T01:32:25.782Z,2.57
2018-10-19T01:34:54.626Z,3.50
2018-10-19T01:37:23.510Z,2.57
2018-10-19T01:39:52.322Z,2.63
2018-10-19T01:42:21.159Z,3.10
2018-10-19T01:44:49.981Z,2.53
2018-10-19T01:47:18.818Z,2.43
2018-10-19T01:49:47.710Z,2.57
2018-10-19T01:52:16.546Z,2.67
2018-10-19T01:54:45.403Z,2.40
2018-10-19T01:57:14.258Z,2.53
2018-10-19T01:59:43.065Z,3.27
2018-10-19T02:02:12.073Z,2.30
2018-10-19T02:04:40.915Z,3.30
2018-10-19T02:07:09.802Z,3.23
2018-10-19T02:09:38.675Z,2.47
2018-10-19T02:12:07.959Z,2.63
2018-10-19T02:14:37.047Z,3.13
2018-10-19T02:17:06.403Z,3.53
2018-10-19T02:19:35.570Z,2.47
2018-10-19T02:22:04.542Z,2.90
2018-10-19T02:24:33.359Z,2.60
2018-10-19T02:27:02.262Z,3.33
2018-10-19T02:29:31.100Z,3.80
2018-10-19T02:33:03.161Z,2.33
2018-10-19T02:35:31.936Z,2.80
2018-10-19T02:38:00.880Z,2.87
2018-10-19T02:40:29.718Z,3.30
2018-10-19T02:42:58.536Z,3.23
2018-10-19T02:45:27.352Z,2.83
2018-10-19T02:47:56.203Z,3.00
2018-10-19T02:50:25.027Z,3.73
2018-10-19T02:52:53.914Z,2.87
2018-10-19T02:55:22.707Z,2.67
2018-10-19T02:57:51.526Z,2.83
2018-10-19T03:00:20.338Z,2.80
2018-10-19T03:02:49.174Z,2.87
2018-10-19T03:05:18.055Z,3.83
2018-10-19T03:07:46.823Z,2.97
2018-10-19T03:10:15.667Z,2.90
2018-10-19T03:12:44.531Z,3.00
2018-10-19T03:15:13.440Z,3.30
2018-10-19T03:17:42.210Z,3.33
2018-10-19T03:20:11.052Z,2.90
2018-10-19T03:22:39.888Z,2.70
2018-10-19T03:25:09.426Z,2.90
2018-10-19T03:27:38.521Z,3.37
2018-10-19T03:30:08.243Z,2.90
2018-10-19T03:32:37.089Z,3.20
2018-10-19T03:35:06.756Z,3.83
2018-10-19T03:37:35.583Z,4.87
2018-10-19T03:40:04.623Z,3.20
2018-10-19T03:42:33.467Z,2.97
2018-10-19T03:45:02.361Z,3.30
2018-10-19T03:47:31.151Z,2.80
2018-10-19T03:50:00.166Z,3.07
2018-10-19T03:52:29.030Z,4.00
2018-10-19T03:54:57.843Z,3.40
2018-10-19T03:57:26.707Z,3.33
2018-10-19T03:59:55.528Z,3.30
2018-10-19T04:02:24.878Z,2.83
2018-10-19T04:04:53.736Z,3.13
2018-10-19T04:07:22.554Z,3.13
2018-10-19T04:09:51.388Z,3.03
2018-10-19T04:12:20.274Z,2.63
2018-10-19T04:14:49.255Z,2.80
2018-10-19T04:17:18.234Z,3.77
2018-10-19T04:19:47.003Z,3.00
2018-10-19T04:22:15.966Z,3.50
2018-10-19T04:24:44.811Z,3.20
2018-10-19T04:27:13.700Z,3.20
2018-10-19T04:29:42.531Z,2.80
2018-10-19T04:32:11.381Z,3.20
2018-10-19T04:34:40.284Z,3.00
2018-10-19T04:37:09.158Z,3.23
2018-10-19T04:39:38.065Z,3.80
2018-10-19T04:42:06.987Z,3.37
2018-10-19T04:44:36.765Z,3.93
2018-10-19T04:47:06.119Z,3.37
2018-10-19T04:49:34.867Z,3.30
2018-10-19T04:52:03.727Z,3.43
2018-10-19T04:54:32.541Z,3.00
2018-10-19T04:57:01.435Z,3.63
2018-10-19T04:59:30.227Z,2.80
2018-10-19T05:01:59.091Z,3.10
2018-10-19T05:04:28.625Z,3.90
2018-10-19T05:06:57.459Z,3.40
2018-10-19T05:09:26.294Z,4.00
2018-10-19T05:11:55.127Z,3.43
2018-10-19T05:14:24.675Z,3.80
2018-10-19T05:16:53.481Z,3.47
2018-10-19T05:19:22.350Z,3.20
2018-10-19T05:21:51.175Z,3.10
2018-10-19T05:24:20.024Z,3.10
2018-10-19T05:26:49.538Z,3.00
2018-10-19T05:29:18.368Z,3.03
2018-10-19T05:31:47.219Z,3.40
2018-10-19T05:34:16.178Z,2.83
2018-10-19T05:36:45.103Z,3.17
2018-10-19T05:39:14.061Z,3.87
2018-10-19T05:41:42.911Z,2.87
2018-10-19T05:44:11.818Z,3.53
2018-10-19T05:46:40.990Z,3.70
2018-10-19T05:49:09.827Z,3.77
2018-10-19T05:51:38.845Z,3.17
2018-10-19T05:54:07.693Z,2.70
2018-10-19T05:56:37.714Z,3.83
2018-10-19T05:59:06.590Z,3.53
2018-10-19T06:01:35.402Z,3.43
2018-10-19T06:04:04.266Z,3.10
2018-10-19T06:06:33.121Z,3.33
2018-10-19T06:09:02.041Z,6.20
2018-10-19T06:11:30.861Z,3.30
2018-10-19T06:13:59.883Z,3.87
2018-10-19T06:16:28.719Z,3.27
2018-10-19T06:18:57.558Z,3.40
2018-10-19T06:21:26.414Z,2.90
2018-10-19T06:23:55.262Z,3.20
2018-10-19T06:26:24.185Z,3.47
2018-10-19T06:28:52.993Z,2.73
2018-10-19T06:31:21.803Z,4.70
2018-10-19T06:33:50.714Z,4.30
2018-10-19T06:36:19.490Z,2.70
2018-10-19T06:38:48.603Z,3.53
2018-10-19T06:41:17.527Z,3.17
2018-10-19T06:43:46.279Z,2.90
2018-10-19T06:46:15.127Z,2.83
2018-10-19T06:48:43.959Z,3.20
2018-10-19T06:51:12.923Z,3.53
2018-10-19T06:53:41.784Z,3.30
2018-10-19T06:56:10.839Z,2.47
2018-10-19T06:58:39.643Z,2.70
2018-10-19T07:01:08.467Z,3.63
2018-10-19T07:03:37.378Z,2.90
2018-10-19T07:06:06.725Z,3.30
2018-10-19T07:08:35.523Z,2.60
2018-10-19T07:11:05.765Z,2.67
2018-10-19T07:13:34.610Z,3.23
2018-10-19T07:16:03.472Z,3.10
2018-10-19T07:18:32.364Z,3.30
2018-10-19T07:21:01.280Z,2.70
2018-10-19T07:23:30.150Z,2.63
2018-10-19T07:25:59.076Z,3.90
2018-10-19T07:28:27.919Z,3.40
2018-10-19T07:30:56.811Z,3.77
2018-10-19T07:33:25.732Z,3.50
2018-10-19T07:35:54.594Z,4.03
2018-10-19T07:38:23.482Z,3.00
2018-10-19T07:40:52.394Z,4.13
2018-10-19T07:43:21.261Z,3.47
2018-10-19T07:45:50.167Z,3.40
2018-10-19T07:48:19.084Z,4.63
2018-10-19T07:50:48.003Z,3.20
2018-10-19T07:53:16.983Z,3.50
2018-10-19T07:55:45.903Z,3.20
2018-10-19T07:58:15.342Z,3.70
2018-10-19T08:00:44.228Z,3.40
2018-10-19T08:03:13.123Z,3.23
2018-10-19T08:05:42.588Z,3.30
2018-10-19T08:08:12.215Z,3.57
2018-10-19T08:10:41.208Z,3.30
2018-10-19T08:13:10.794Z,2.67
2018-10-19T08:15:39.687Z,3.70
2018-10-19T08:18:08.718Z,3.40
2018-10-19T08:20:37.587Z,4.27
2018-10-19T08:23:06.621Z,3.83
2018-10-19T08:25:35.601Z,3.53
2018-10-19T08:28:04.442Z,4.60
2018-10-19T08:30:33.372Z,3.77
2018-10-19T08:33:02.224Z,5.17
2018-10-19T08:35:31.114Z,3.33
2018-10-19T08:38:00.028Z,4.10
2018-10-19T08:40:28.918Z,4.10
2018-10-19T08:42:57.764Z,3.50
2018-10-19T08:45:26.651Z,3.93
2018-10-19T08:47:55.490Z,4.60
2018-10-19T08:50:24.324Z,4.40
2018-10-19T08:52:53.163Z,4.60
2018-10-19T08:55:21.999Z,3.47
2018-10-19T08:57:50.940Z,3.97
2018-10-19T09:00:19.803Z,4.23
2018-10-19T09:02:48.550Z,4.00
2018-10-19T09:05:17.451Z,4.10
2018-10-19T09:07:46.203Z,4.00
2018-10-19T09:10:15.071Z,3.07
2018-10-19T09:12:44.013Z,3.70
2018-10-19T09:15:12.897Z,3.73
2018-10-19T09:17:41.678Z,3.43
2018-10-19T09:20:10.531Z,3.90
2018-10-19T09:22:39.397Z,4.13
2018-10-19T09:25:08.759Z,4.43
2018-10-19T09:27:37.591Z,3.30
2018-10-19T09:30:07.549Z,3.63
2018-10-19T09:32:36.354Z,3.70
2018-10-19T09:35:05.234Z,3.70
2018-10-19T09:37:34.043Z,4.37
2018-10-19T09:40:02.888Z,3.97
2018-10-19T09:42:31.732Z,4.10
2018-10-19T09:45:00.649Z,3.60
2018-10-19T09:47:29.624Z,4.20
2018-10-19T09:49:58.397Z,4.30
2018-10-19T09:52:27.208Z,3.67
2018-10-19T09:54:56.064Z,4.40
2018-10-19T09:57:25.351Z,3.40
2018-10-19T09:59:54.183Z,3.93
2018-10-19T10:02:23.047Z,3.97
2018-10-19T10:04:51.911Z,3.30
2018-10-19T10:07:20.754Z,3.37
2018-10-19T10:09:49.631Z,3.43
2018-10-19T10:12:18.478Z,3.67
2018-10-19T10:14:47.382Z,4.20
2018-10-19T10:17:16.170Z,4.07
2018-10-19T10:19:45.071Z,2.77
2018-10-19T10:22:13.928Z,3.17
2018-10-19T10:24:42.794Z,3.30
2018-10-19T10:27:11.571Z,2.67
2018-10-19T10:29:40.403Z,3.20
2018-10-19T10:32:09.238Z,4.20
2018-10-19T10:34:38.099Z,4.00
2018-10-19T10:37:07.024Z,3.00
2018-10-19T10:39:35.862Z,3.23
2018-10-19T10:42:05.035Z,2.80
2018-10-19T10:44:33.860Z,2.50
2018-10-19T10:47:02.745Z,3.37
2018-10-19T10:49:31.506Z,2.23
2018-10-19T10:52:00.334Z,2.73
2018-10-19T10:54:29.170Z,3.70
2018-10-19T10:56:57.992Z,3.43
2018-10-19T10:59:26.817Z,3.07
2018-10-19T11:01:55.645Z,2.73
2018-10-19T11:04:24.479Z,3.20
2018-10-19T11:06:53.298Z,2.60
2018-10-19T11:09:22.166Z,2.90
2018-10-19T11:11:51.002Z,3.10
2018-10-19T11:14:19.818Z,3.20
2018-10-19T11:16:48.661Z,3.83
2018-10-19T11:19:17.502Z,3.93
2018-10-19T11:21:46.702Z,3.50
2018-10-19T11:24:15.516Z,3.23
2018-10-19T11:26:44.370Z,2.87
2018-10-19T11:29:13.201Z,2.83
2018-10-19T11:31:42.014Z,3.50
2018-10-19T11:34:10.949Z,3.33
2018-10-19T11:36:39.726Z,3.43
2018-10-19T11:39:09.674Z,2.83
2018-10-19T11:41:38.839Z,2.90
2018-10-19T11:44:07.989Z,2.90
2018-10-19T11:46:36.932Z,2.77
2018-10-19T11:49:05.898Z,2.90
2018-10-19T11:51:34.719Z,3.20
2018-10-19T11:54:03.642Z,3.87
2018-10-19T11:56:32.590Z,2.83
2018-10-19T11:59:01.488Z,2.93
2018-10-19T12:01:30.437Z,2.70
2018-10-19T12:03:59.293Z,2.30
2018-10-19T12:06:28.271Z,2.70
2018-10-19T12:08:57.174Z,2.87
2018-10-19T12:11:26.095Z,3.30
2018-10-19T12:13:54.934Z,2.50
2018-10-19T12:16:23.881Z,2.93
2018-10-19T12:18:52.720Z,2.70
2018-10-19T12:21:21.722Z,3.50
2018-10-19T12:23:50.576Z,3.10
2018-10-19T12:26:20.113Z,3.10
2018-10-19T12:28:48.998Z,2.57
2018-10-19T12:31:18.027Z,2.87
2018-10-19T12:33:46.818Z,2.70
2018-10-19T12:36:15.658Z,2.87
2018-10-19T12:38:44.566Z,2.60
2018-10-19T12:41:13.618Z,2.80
2018-10-19T12:43:42.514Z,3.10
2018-10-19T12:46:34.846Z,2.30
2018-10-19T12:49:03.814Z,2.47
2018-10-19T12:51:32.734Z,2.30
2018-10-19T12:54:01.749Z,2.77
2018-10-19T12:56:30.550Z,2.80
2018-10-19T12:58:59.382Z,2.60
2018-10-19T13:01:29.142Z,2.57
2018-10-19T13:03:58.519Z,2.57
2018-10-19T13:06:27.346Z,2.50
2018-10-19T13:08:56.184Z,2.77
2018-10-19T13:11:25.307Z,2.60
2018-10-19T13:13:54.294Z,2.47
2018-10-19T13:16:23.367Z,2.90
2018-10-19T13:18:52.499Z,2.50
2018-10-19T13:21:21.570Z,2.83
2018-10-19T13:23:50.394Z,2.90
2018-10-19T13:26:19.375Z,2.20
2018-10-19T13:28:48.266Z,2.37
2018-10-19T13:31:17.077Z,2.50
2018-10-19T13:33:45.914Z,3.03
2018-10-19T13:36:14.871Z,2.43
2018-10-19T13:38:43.727Z,2.70
2018-10-19T13:41:12.541Z,3.27
2018-10-19T13:43:42.098Z,2.53
2018-10-19T13:46:10.971Z,2.70
2018-10-19T13:48:39.813Z,3.23
2018-10-19T13:51:08.645Z,2.83
2018-10-19T13:53:37.454Z,2.80
2018-10-19T13:56:06.274Z,2.70
2018-10-19T13:58:35.152Z,3.27
2018-10-19T14:01:04.143Z,2.70
2018-10-19T14:03:32.991Z,2.77
2018-10-19T14:06:02.694Z,2.40
2018-10-19T14:08:31.537Z,2.73
2018-10-19T14:11:00.393Z,2.30
2018-10-19T14:13:29.288Z,3.80
2018-10-19T14:15:58.134Z,2.57
2018-10-19T14:18:27.002Z,3.20
2018-10-19T14:20:55.816Z,2.70
2018-10-19T14:23:25.670Z,3.03
2018-10-19T14:25:54.532Z,2.57
2018-10-19T14:28:23.375Z,3.23
2018-10-19T14:30:52.260Z,2.67
2018-10-19T14:33:21.231Z,3.23
2018-10-19T14:35:49.923Z,3.37
2018-10-19T14:38:18.847Z,2.60
2018-10-19T14:40:47.656Z,2.87
2018-10-19T14:43:16.619Z,3.30
2018-10-19T14:45:45.432Z,2.70
2018-10-19T14:48:14.294Z,3.30
2018-10-19T14:50:43.158Z,2.60
2018-10-19T14:53:12.149Z,2.83
2018-10-19T14:55:41.018Z,3.10
2018-10-19T14:58:09.854Z,2.70
2018-10-19T15:00:38.677Z,3.13
2018-10-19T15:03:07.593Z,2.20
2018-10-19T15:05:36.438Z,3.10
2018-10-19T15:08:05.430Z,2.07
2018-10-19T15:10:34.483Z,2.90
2018-10-19T15:13:03.116Z,2.73
2018-10-19T15:15:32.034Z,5.93
2018-10-19T15:18:00.991Z,7.53
2018-10-19T15:20:29.791Z,7.10
2018-10-19T15:22:58.619Z,8.07
2018-10-19T15:25:27.523Z,5.90
2018-10-19T15:27:56.435Z,3.53
2018-10-19T15:30:25.307Z,4.10
2018-10-19T15:32:54.266Z,5.43
2018-10-19T15:35:23.083Z,3.73
2018-10-19T15:37:51.840Z,3.60
2018-10-19T15:40:20.765Z,3.30
2018-10-19T15:42:49.646Z,4.20
2018-10-19T15:45:18.610Z,3.70
2018-10-19T15:47:47.527Z,3.27
2018-10-19T15:50:16.427Z,3.47
2018-10-19T15:52:45.374Z,3.07
2018-10-19T15:55:14.298Z,3.77
2018-10-19T15:57:43.202Z,3.90
2018-10-19T16:00:12.112Z,3.43
2018-10-19T16:02:41.038Z,3.40
2018-10-19T16:05:09.955Z,3.27
2018-10-19T16:07:39.018Z,3.50
2018-10-19T16:10:08.838Z,3.30
2018-10-19T16:12:37.751Z,3.17
2018-10-19T16:15:09.412Z,3.30
2018-10-19T16:17:38.370Z,4.00
2018-10-19T16:20:09.078Z,2.87
2018-10-19T16:22:38.271Z,3.40
2018-10-19T16:25:07.905Z,3.50
2018-10-19T16:27:37.906Z,4.10
2018-10-19T16:30:08.420Z,3.63
2018-10-19T16:32:37.606Z,3.67
2018-10-19T16:35:06.521Z,3.77
2018-10-19T16:37:35.612Z,3.90
2018-10-19T16:40:04.686Z,3.50
2018-10-19T16:42:33.594Z,3.53
2018-10-19T16:45:02.370Z,3.60
2018-10-19T16:47:31.588Z,3.53
2018-10-19T16:50:00.560Z,3.90
2018-10-19T16:52:29.507Z,3.77
2018-10-19T16:54:58.446Z,4.17
2018-10-19T16:57:27.475Z,3.53
2018-10-19T16:59:56.473Z,3.90
2018-10-19T17:02:25.439Z,3.43
2018-10-19T17:04:54.571Z,5.67
2018-10-19T17:07:23.440Z,11.97
2018-10-19T17:09:52.387Z,12.67
2018-10-19T17:12:21.330Z,13.33
2018-10-19T17:14:50.312Z,7.50
2018-10-19T17:17:19.579Z,5.97
2018-10-19T17:19:48.520Z,6.10
2018-10-19T17:22:17.460Z,5.00
2018-10-19T17:24:46.356Z,5.57
2018-10-19T17:27:15.327Z,6.10
2018-10-19T17:29:44.217Z,5.63
2018-10-19T17:32:13.128Z,5.73
2018-10-19T17:34:42.043Z,5.27
2018-10-19T17:37:11.060Z,7.07
2018-10-19T17:39:39.896Z,5.60
2018-10-19T17:42:08.794Z,5.60
2018-10-19T17:44:37.702Z,6.00
2018-10-19T17:47:06.670Z,6.10
2018-10-19T17:49:35.995Z,5.70
2018-10-19T17:52:05.115Z,6.00
2018-10-19T17:54:34.062Z,5.00
2018-10-19T17:57:03.006Z,5.90
2018-10-19T17:59:31.930Z,6.17
2018-10-19T18:02:01.735Z,5.27
2018-10-19T18:04:31.570Z,5.80
2018-10-19T18:07:00.488Z,6.20
2018-10-19T18:09:29.385Z,6.10
2018-10-19T18:11:58.187Z,6.33
2018-10-19T18:14:27.658Z,6.70
2018-10-19T18:16:56.603Z,6.97
2018-10-19T18:19:25.464Z,6.13
2018-10-19T18:21:54.787Z,6.43
2018-10-19T18:24:23.558Z,6.20
2018-10-19T18:26:52.425Z,6.03
2018-10-19T18:29:21.275Z,6.50
2018-10-19T18:31:50.225Z,6.40
2018-10-19T18:34:19.143Z,6.20
2018-10-19T18:36:48.088Z,7.83
2018-10-19T18:39:17.054Z,6.83
2018-10-19T18:41:45.988Z,8.00
2018-10-19T18:44:15.012Z,7.03
2018-10-19T18:46:43.870Z,7.33
2018-10-19T18:49:12.714Z,7.30
2018-10-19T18:51:41.585Z,8.30
2018-10-19T18:54:10.491Z,8.00
2018-10-19T18:56:39.342Z,7.63
2018-10-19T18:59:08.404Z,7.37
2018-10-19T19:01:37.172Z,9.00
2018-10-19T19:04:06.598Z,9.30
2018-10-19T19:06:35.483Z,9.20
2018-10-19T19:09:06.887Z,9.73
2018-10-19T19:11:35.715Z,10.40
2018-10-19T19:14:04.678Z,11.07
2018-10-19T19:16:33.479Z,9.10
2018-10-19T19:20:11.790Z,8.20
2018-10-19T19:22:40.898Z,10.20
2018-10-19T19:25:15.116Z,10.90
2018-10-19T19:27:44.031Z,9.67
2018-10-19T19:30:12.937Z,8.57
2018-10-19T19:32:47.026Z,9.60
2018-10-19T19:35:16.009Z,9.80
2018-10-19T19:37:44.762Z,9.30
2018-10-19T19:40:13.597Z,10.60
2018-10-19T19:42:46.026Z,11.40
2018-10-19T19:45:15.105Z,8.33
2018-10-19T19:47:49.378Z,9.63
2018-10-19T19:50:18.188Z,9.40
2018-10-19T19:52:47.002Z,8.17
2018-10-19T19:55:15.847Z,9.30
2018-10-19T19:57:44.710Z,10.10
2018-10-19T20:00:13.523Z,9.37
2018-10-19T20:02:42.501Z,11.13
2018-10-19T20:05:11.350Z,17.07
2018-10-19T20:07:40.196Z,20.30
2018-10-19T20:10:09.035Z,18.13
2018-10-19T20:12:37.919Z,15.73
2018-10-19T20:15:08.223Z,14.20
2018-10-19T20:17:37.166Z,13.17
2018-10-19T20:20:08.447Z,11.90
2018-10-19T20:22:37.507Z,11.90
2018-10-19T20:25:07.619Z,10.73
2018-10-19T20:27:37.027Z,12.70
2018-10-19T20:30:08.275Z,10.97
2018-10-19T20:32:37.672Z,10.67
2018-10-19T20:35:06.531Z,10.87
2018-10-19T20:37:35.302Z,11.10
2018-10-19T20:40:04.444Z,10.47
2018-10-19T20:42:33.315Z,10.87
2018-10-19T20:45:02.179Z,13.27
2018-10-19T20:47:31.022Z,12.10
2018-10-19T20:49:59.970Z,16.13
2018-10-19T20:52:28.732Z,12.40
2018-10-19T20:54:57.584Z,10.37
2018-10-19T20:57:26.413Z,10.40
2018-10-19T20:59:55.259Z,9.73
2018-10-19T21:02:24.095Z,10.00
2018-10-19T21:04:52.980Z,10.30
2018-10-19T21:07:21.859Z,10.83
2018-10-19T21:09:50.660Z,9.93
2018-10-19T21:12:19.539Z,10.13
2018-10-19T21:14:48.369Z,9.50
2018-10-19T21:17:17.460Z,9.20
2018-10-19T21:19:46.314Z,9.53
2018-10-19T21:22:15.132Z,10.00
2018-10-19T21:24:43.994Z,10.60
2018-10-19T21:27:12.834Z,10.30
2018-10-19T21:29:41.672Z,10.07
2018-10-19T21:32:10.587Z,10.63
2018-10-19T21:34:39.418Z,9.60
2018-10-19T21:37:08.242Z,8.87
2018-10-19T21:39:37.094Z,9.70
2018-10-19T21:42:05.995Z,10.60
2018-10-19T21:44:34.815Z,8.97
2018-10-19T21:47:03.710Z,10.13
2018-10-19T21:49:32.539Z,9.33
2018-10-19T21:52:01.354Z,9.60
2018-10-19T21:54:30.207Z,11.97
2018-10-19T21:56:59.061Z,24.90
2018-10-19T21:59:27.920Z,15.30
2018-10-19T22:01:56.803Z,15.83
2018-10-19T22:04:25.754Z,13.30
2018-10-19T22:06:54.594Z,10.00
2018-10-19T22:09:23.422Z,11.33
2018-10-19T22:11:52.242Z,10.60
2018-10-19T22:14:21.135Z,10.83
2018-10-19T22:16:49.951Z,22.77
2018-10-19T22:19:18.799Z,11.70
2018-10-19T22:21:47.627Z,21.83
2018-10-19T22:24:16.451Z,11.30
2018-10-19T22:26:45.306Z,11.13
2018-10-19T22:29:14.191Z,10.23
2018-10-19T22:31:42.975Z,11.30
2018-10-19T22:34:11.810Z,11.17
2018-10-19T22:36:40.642Z,10.47
2018-10-19T22:39:09.454Z,11.00
2018-10-19T22:41:38.362Z,12.00
2018-10-19T22:44:07.168Z,11.43
2018-10-19T22:46:36.018Z,10.67
2018-10-19T22:49:05.303Z,11.27
2018-10-19T22:51:34.130Z,12.27
2018-10-19T22:54:03.030Z,10.80
2018-10-19T22:56:31.884Z,11.33
2018-10-19T22:59:00.752Z,12.27
2018-10-19T23:01:29.538Z,11.87
2018-10-19T23:03:58.394Z,10.73
2018-10-19T23:06:27.279Z,10.90
2018-10-19T23:08:56.114Z,10.40
2018-10-19T23:11:24.947Z,10.73
2018-10-19T23:13:53.807Z,10.43
2018-10-19T23:16:22.707Z,12.47
2018-10-19T23:19:01.536Z,11.07
2018-10-19T23:21:30.418Z,10.07
2018-10-19T23:23:59.157Z,11.43
2018-10-19T23:26:28.019Z,12.10
2018-10-19T23:28:56.915Z,10.70
2018-10-19T23:31:25.817Z,10.60
2018-10-19T23:33:54.590Z,12.23
2018-10-19T23:36:23.430Z,10.70
2018-10-19T23:38:52.241Z,11.10
2018-10-19T23:41:21.079Z,10.43
2018-10-19T23:43:49.926Z,11.37
2018-10-19T23:46:18.750Z,10.13
2018-10-19T23:48:47.577Z,11.10
2018-10-19T23:51:16.437Z,10.30
2018-10-19T23:53:45.263Z,11.10
2018-10-19T23:56:14.091Z,9.60
2018-10-19T23:58:42.955Z,11.33
